createdAt,value
2019-05-06T00:02:27.876Z,101840.45
2019-05-06T00:04:58.534Z,101838.27
2019-05-06T00:07:39.004Z,101846.59
2019-05-06T00:10:24.624Z,101845.81
2019-05-06T00:12:56.358Z,101843.37
2019-05-06T00:15:28.686Z,101845.32
2019-05-06T00:17:59.523Z,101840.91
2019-05-06T00:20:30.195Z,101842.37
2019-05-06T00:23:04.207Z,101844.44
2019-05-06T00:25:39.334Z,101841.27
2019-05-06T00:28:27.967Z,101844.45
2019-05-06T00:31:12.821Z,101844.39
2019-05-06T00:33:44.698Z,101847.28
2019-05-06T00:36:20.660Z,101843.26
2019-05-06T00:38:53.966Z,101841.08
2019-05-06T00:41:29.024Z,101835.17
2019-05-06T00:44:18.484Z,101837.35
2019-05-06T00:46:49.131Z,101835.22
2019-05-06T00:49:19.714Z,101833.97
2019-05-06T00:51:50.318Z,101838.83
2019-05-06T00:54:29.559Z,101836.06
2019-05-06T00:57:00.163Z,101830.75
2019-05-06T00:59:30.828Z,101827.27
2019-05-06T01:02:01.593Z,101830.80
2019-05-06T01:04:50.188Z,101833.27
2019-05-06T01:07:20.798Z,101834.16
2019-05-06T01:09:51.469Z,101842.10
2019-05-06T01:12:24.317Z,101835.81
2019-05-06T01:15:07.909Z,101836.34
2019-05-06T01:17:40.702Z,101837.91
2019-05-06T01:20:11.418Z,101843.26
2019-05-06T01:22:45.238Z,101846.56
2019-05-06T01:25:15.898Z,101847.14
2019-05-06T01:27:46.486Z,101841.71
2019-05-06T01:30:18.150Z,101840.81
2019-05-06T01:32:48.817Z,101845.27
2019-05-06T01:35:19.421Z,101835.59
2019-05-06T01:37:51.868Z,101839.03
2019-05-06T01:40:34.578Z,101844.41
2019-05-06T01:43:06.957Z,101837.06
2019-05-06T01:45:48.751Z,101841.44
2019-05-06T01:48:21.047Z,101838.00
2019-05-06T01:50:51.707Z,101836.30
2019-05-06T01:53:24.190Z,101840.27
2019-05-06T01:55:56.999Z,101839.25
2019-05-06T01:58:29.719Z,101830.91
2019-05-06T02:01:00.404Z,101833.41
2019-05-06T02:03:31.221Z,101836.13
2019-05-06T02:06:02.111Z,101832.25
2019-05-06T02:08:34.338Z,101837.47
2019-05-06T02:11:08.847Z,101840.22
2019-05-06T02:13:47.962Z,101842.91
2019-05-06T02:16:20.296Z,101842.50
2019-05-06T02:18:54.138Z,101838.45
2019-05-06T02:21:28.107Z,101839.39
2019-05-06T02:24:07.099Z,101838.83
2019-05-06T02:26:39.241Z,101836.23
2019-05-06T02:29:16.186Z,101844.34
2019-05-06T02:32:17.047Z,101836.44
2019-05-06T02:34:45.876Z,101843.20
2019-05-06T02:37:25.492Z,101840.09
2019-05-06T02:39:57.941Z,101835.70
2019-05-06T02:42:29.998Z,101830.72
2019-05-06T02:45:04.021Z,101831.00
2019-05-06T02:47:45.000Z,101840.94
2019-05-06T02:50:23.907Z,101839.47
2019-05-06T02:52:55.952Z,101846.73
2019-05-06T02:55:33.264Z,101844.87
2019-05-06T02:58:04.296Z,101843.97
2019-05-06T03:00:35.190Z,101843.55
2019-05-06T03:03:06.004Z,101838.80
2019-05-06T03:05:39.289Z,101836.83
2019-05-06T03:08:13.218Z,101836.20
2019-05-06T03:10:44.243Z,101835.23
2019-05-06T03:13:15.547Z,101839.69
2019-05-06T03:15:47.035Z,101843.18
2019-05-06T03:18:32.829Z,101847.63
2019-05-06T03:21:14.202Z,101846.70
2019-05-06T03:24:03.938Z,101846.11
2019-05-06T03:26:45.610Z,101841.25
2019-05-06T03:29:17.100Z,101841.24
2019-05-06T03:31:49.356Z,101838.80
2019-05-06T03:34:52.226Z,101837.20
2019-05-06T03:37:07.329Z,101838.35
2019-05-06T03:39:45.664Z,101829.92
2019-05-06T03:42:17.069Z,101836.72
2019-05-06T03:44:53.186Z,101835.33
2019-05-06T03:47:26.160Z,101821.27
2019-05-06T03:50:13.122Z,101830.55
2019-05-06T03:52:44.314Z,101827.47
2019-05-06T03:55:15.241Z,101831.52
2019-05-06T03:57:48.153Z,101829.59
2019-05-06T04:00:26.870Z,101823.73
2019-05-06T04:03:02.920Z,101829.48
2019-05-06T04:05:40.111Z,101826.28
2019-05-06T04:08:12.738Z,101821.64
2019-05-06T04:10:45.327Z,101816.78
2019-05-06T04:13:24.163Z,101828.80
2019-05-06T04:16:13.858Z,101834.16
2019-05-06T04:18:47.861Z,101825.20
2019-05-06T04:21:25.883Z,101829.50
2019-05-06T04:23:58.265Z,101830.11
2019-05-06T04:26:47.337Z,101829.80
2019-05-06T04:29:20.311Z,101823.11
2019-05-06T04:31:59.371Z,101818.05
2019-05-06T04:34:33.161Z,101821.00
2019-05-06T04:37:08.290Z,101818.15
2019-05-06T04:39:53.338Z,101819.53
2019-05-06T04:42:27.034Z,101818.05
2019-05-06T04:45:17.738Z,101823.67
2019-05-06T04:48:03.592Z,101827.11
2019-05-06T04:50:44.457Z,101821.23
2019-05-06T04:53:15.546Z,101823.78
2019-05-06T04:55:53.950Z,101828.14
2019-05-06T04:58:34.969Z,101827.20
2019-05-06T05:01:05.771Z,101828.40
2019-05-06T05:03:36.661Z,101836.27
2019-05-06T05:06:07.299Z,101833.72
2019-05-06T05:08:38.361Z,101841.04
2019-05-06T05:11:29.220Z,101840.00
2019-05-06T05:14:02.837Z,101837.68
2019-05-06T05:16:53.857Z,101835.00
2019-05-06T05:19:24.555Z,101831.88
2019-05-06T05:21:56.987Z,101830.30
2019-05-06T05:24:27.874Z,101836.26
2019-05-06T05:26:58.590Z,101832.81
2019-05-06T05:29:34.356Z,101836.39
2019-05-06T05:32:07.107Z,101839.45
2019-05-06T05:34:43.591Z,101835.78
2019-05-06T05:37:15.165Z,101836.77
2019-05-06T05:39:46.049Z,101839.39
2019-05-06T05:42:32.757Z,101838.84
2019-05-06T05:45:03.807Z,101837.31
2019-05-06T05:47:34.388Z,101833.83
2019-05-06T05:50:13.391Z,101837.37
2019-05-06T05:52:44.109Z,101835.59
2019-05-06T05:55:14.922Z,101832.27
2019-05-06T05:57:45.489Z,101832.05
2019-05-06T06:00:17.156Z,101832.94
2019-05-06T06:02:47.741Z,101833.45
2019-05-06T06:05:18.387Z,101843.29
2019-05-06T06:08:10.065Z,101842.91
2019-05-06T06:10:46.165Z,101848.06
2019-05-06T06:13:16.811Z,101857.09
2019-05-06T06:16:04.441Z,101856.61
2019-05-06T06:18:43.151Z,101855.20
2019-05-06T06:21:24.711Z,101852.80
2019-05-06T06:24:04.465Z,101851.00
2019-05-06T06:26:35.186Z,101849.89
2019-05-06T06:29:05.881Z,101857.83
2019-05-06T06:31:44.733Z,101843.20
2019-05-06T06:34:29.242Z,101837.23
2019-05-06T06:37:17.861Z,101844.55
2019-05-06T06:39:52.719Z,101848.84
2019-05-06T06:42:23.461Z,101847.83
2019-05-06T06:44:54.303Z,101853.48
2019-05-06T06:47:25.052Z,101852.27
2019-05-06T06:49:55.757Z,101854.88
2019-05-06T06:52:26.427Z,101854.52
2019-05-06T06:55:12.970Z,101857.20
2019-05-06T06:58:02.722Z,101854.07
2019-05-06T07:00:35.189Z,101848.42
2019-05-06T07:03:07.787Z,101846.86
2019-05-06T07:05:59.863Z,101844.84
2019-05-06T07:08:37.253Z,101848.09
2019-05-06T07:11:03.650Z,101848.61
2019-05-06T07:13:34.716Z,101853.55
2019-05-06T07:16:05.491Z,101853.69
2019-05-06T07:18:36.336Z,101845.64
2019-05-06T07:21:14.028Z,101850.67
2019-05-06T07:23:50.235Z,101843.45
2019-05-06T07:26:23.863Z,101839.47
2019-05-06T07:29:16.896Z,101850.48
2019-05-06T07:31:50.470Z,101848.03
2019-05-06T07:34:22.879Z,101840.28
2019-05-06T07:37:03.234Z,101848.09
2019-05-06T07:39:33.755Z,101842.45
2019-05-06T07:42:06.738Z,101839.39
2019-05-06T07:44:55.623Z,101834.80
2019-05-06T07:47:33.601Z,101838.37
2019-05-06T07:50:08.466Z,101843.55
2019-05-06T07:52:39.169Z,101845.40
2019-05-06T07:55:22.968Z,101842.12
2019-05-06T07:57:55.025Z,101843.46
2019-05-06T08:00:32.763Z,101841.69
2019-05-06T08:03:08.155Z,101837.53
2019-05-06T08:05:58.066Z,101836.56
2019-05-06T08:08:18.419Z,101836.70
2019-05-06T08:10:52.743Z,101830.08
2019-05-06T08:13:23.686Z,101830.55
2019-05-06T08:15:55.308Z,101827.16
2019-05-06T08:18:26.485Z,101822.12
2019-05-06T08:21:02.364Z,101830.31
2019-05-06T08:23:34.441Z,101813.81
2019-05-06T08:26:12.676Z,101827.02
2019-05-06T08:28:44.547Z,101828.09
2019-05-06T08:31:16.891Z,101813.84
2019-05-06T08:33:47.763Z,101815.63
2019-05-06T08:36:20.137Z,101804.83
2019-05-06T08:39:02.769Z,101809.64
2019-05-06T08:41:35.062Z,101806.30
2019-05-06T08:44:07.076Z,101802.82
2019-05-06T08:46:37.906Z,101803.88
2019-05-06T08:49:12.323Z,101804.00
2019-05-06T08:51:59.019Z,101807.23
2019-05-06T08:54:34.290Z,101806.69
2019-05-06T08:57:05.141Z,101814.59
2019-05-06T08:59:35.813Z,101808.92
2019-05-06T09:02:07.461Z,101808.75
2019-05-06T09:04:44.157Z,101808.34
2019-05-06T09:07:23.909Z,101810.73
2019-05-06T09:10:02.542Z,101816.77
2019-05-06T09:12:33.131Z,101811.95
2019-05-06T09:15:08.533Z,101805.03
2019-05-06T09:17:39.359Z,101800.00
2019-05-06T09:20:12.906Z,101800.28
2019-05-06T09:22:46.096Z,101800.46
2019-05-06T09:25:16.970Z,101801.24
2019-05-06T09:27:49.386Z,101802.59
2019-05-06T09:30:33.036Z,101799.69
2019-05-06T09:33:03.885Z,101798.48
2019-05-06T09:35:44.970Z,101798.58
2019-05-06T09:38:23.782Z,101796.73
2019-05-06T09:41:09.689Z,101793.37
2019-05-06T09:43:45.033Z,101796.23
2019-05-06T09:46:19.153Z,101793.98
2019-05-06T09:49:13.212Z,101789.43
2019-05-06T09:51:44.062Z,101800.92
2019-05-06T09:54:19.391Z,101798.55
2019-05-06T09:56:59.051Z,101796.95
2019-05-06T09:59:32.258Z,101797.73
2019-05-06T10:02:06.247Z,101799.83
2019-05-06T10:04:46.180Z,101799.36
2019-05-06T10:07:22.568Z,101804.11
2019-05-06T10:09:53.824Z,101804.11
2019-05-06T10:12:24.568Z,101807.05
2019-05-06T10:14:55.352Z,101811.84
2019-05-06T10:17:25.984Z,101802.09
2019-05-06T10:19:56.764Z,101802.23
2019-05-06T10:22:27.507Z,101803.13
2019-05-06T10:24:58.350Z,101797.31
2019-05-06T10:27:43.768Z,101796.56
2019-05-06T10:30:16.013Z,101790.36
2019-05-06T10:32:54.137Z,101793.53
2019-05-06T10:35:29.156Z,101787.27
2019-05-06T10:38:33.590Z,101784.51
2019-05-06T10:41:13.787Z,101791.88
2019-05-06T10:44:09.700Z,101785.69
2019-05-06T10:46:53.993Z,101780.80
2019-05-06T10:49:24.919Z,101781.56
2019-05-06T10:52:16.324Z,101787.42
2019-05-06T10:54:51.661Z,101784.97
2019-05-06T10:57:25.149Z,101785.92
2019-05-06T11:00:00.687Z,101787.14
2019-05-06T11:02:34.297Z,101790.20
2019-05-06T11:05:06.481Z,101780.17
2019-05-06T11:07:43.086Z,101782.70
2019-05-06T11:10:25.035Z,101775.08
2019-05-06T11:12:52.360Z,101775.31
2019-05-06T11:15:33.094Z,101774.23
2019-05-06T11:18:05.116Z,101775.76
2019-05-06T11:20:35.870Z,101771.21
2019-05-06T11:23:07.624Z,101764.92
2019-05-06T11:25:38.369Z,101766.43
2019-05-06T11:28:12.577Z,101753.88
2019-05-06T11:30:52.871Z,101764.41
2019-05-06T11:33:29.832Z,101763.31
2019-05-06T11:36:04.939Z,101766.34
2019-05-06T11:38:43.121Z,101756.44
2019-05-06T11:41:14.189Z,101769.13
2019-05-06T11:43:44.926Z,101760.98
2019-05-06T11:46:15.738Z,101767.45
2019-05-06T11:48:46.561Z,101763.30
2019-05-06T11:51:19.134Z,101763.91
2019-05-06T11:53:53.901Z,101769.79
2019-05-06T11:56:25.913Z,101769.16
2019-05-06T11:58:58.501Z,101766.19
2019-05-06T12:01:36.844Z,101752.42
2019-05-06T12:04:07.590Z,101767.61
2019-05-06T12:06:39.489Z,101759.18
2019-05-06T12:09:16.307Z,101766.00
2019-05-06T12:11:47.314Z,101757.59
2019-05-06T12:14:18.097Z,101758.37
2019-05-06T12:16:58.916Z,101765.69
2019-05-06T12:19:32.226Z,101764.53
2019-05-06T12:22:02.419Z,101768.61
2019-05-06T12:24:33.329Z,101770.69
2019-05-06T12:27:07.831Z,101766.08
2019-05-06T12:29:38.696Z,101769.50
2019-05-06T12:32:17.932Z,101766.69
2019-05-06T12:34:52.445Z,101757.52
2019-05-06T12:37:24.991Z,101756.48
2019-05-06T12:39:59.662Z,101755.75
2019-05-06T12:42:39.273Z,101755.14
2019-05-06T12:45:17.582Z,101762.52
2019-05-06T12:47:50.178Z,101751.42
2019-05-06T12:50:26.491Z,101755.67
2019-05-06T12:53:09.819Z,101754.74
2019-05-06T12:55:42.900Z,101748.34
2019-05-06T12:58:23.071Z,101753.39
2019-05-06T13:00:56.994Z,101756.90
2019-05-06T13:03:27.914Z,101751.31
2019-05-06T13:06:06.933Z,101750.39
2019-05-06T13:08:52.864Z,101747.47
2019-05-06T13:11:12.986Z,101750.02
2019-05-06T13:13:57.421Z,101741.34
2019-05-06T13:16:25.377Z,101742.35
2019-05-06T13:18:56.248Z,101746.11
2019-05-06T13:21:32.803Z,101740.38
2019-05-06T13:24:12.106Z,101736.99
2019-05-06T13:26:45.104Z,101726.71
2019-05-06T13:29:22.857Z,101738.75
2019-05-06T13:31:57.980Z,101726.01
2019-05-06T13:34:38.012Z,101729.05
2019-05-06T13:37:23.035Z,101721.65
2019-05-06T13:39:54.086Z,101717.91
2019-05-06T13:42:27.523Z,101713.15
2019-05-06T13:45:03.305Z,101723.15
2019-05-06T13:47:48.957Z,101717.03
2019-05-06T13:50:27.861Z,101718.16
2019-05-06T13:53:11.187Z,101717.86
2019-05-06T13:55:39.415Z,101719.13
2019-05-06T13:58:12.391Z,101722.34
2019-05-06T14:00:52.423Z,101717.31
2019-05-06T14:03:28.291Z,101712.41
2019-05-06T14:06:03.844Z,101712.33
2019-05-06T14:08:37.925Z,101710.10
2019-05-06T14:11:32.316Z,101709.45
2019-05-06T14:14:29.070Z,101701.48
2019-05-06T14:17:04.744Z,101705.66
2019-05-06T14:19:35.512Z,101704.72
2019-05-06T14:22:12.617Z,101705.80
2019-05-06T14:24:46.071Z,101700.16
2019-05-06T14:27:22.042Z,101700.39
2019-05-06T14:29:54.344Z,101696.09
2019-05-06T14:32:37.439Z,101698.98
2019-05-06T14:35:08.624Z,101696.68
2019-05-06T14:37:39.472Z,101702.44
2019-05-06T14:40:13.507Z,101700.16
2019-05-06T14:42:53.032Z,101699.95
2019-05-06T14:45:23.932Z,101709.27
2019-05-06T14:47:58.990Z,101707.66
2019-05-06T14:50:44.409Z,101711.20
2019-05-06T14:53:03.471Z,101708.97
2019-05-06T14:55:35.974Z,101707.29
2019-05-06T14:58:07.117Z,101703.66
2019-05-06T15:00:38.003Z,101702.77
2019-05-06T15:03:12.949Z,101709.95
2019-05-06T15:05:45.219Z,101714.79
2019-05-06T15:08:16.011Z,101712.25
2019-05-06T15:10:49.540Z,101715.92
2019-05-06T15:13:22.749Z,101723.04
2019-05-06T15:15:53.008Z,101727.63
2019-05-06T15:18:32.914Z,101726.01
2019-05-06T15:21:29.104Z,101720.19
2019-05-06T15:23:42.534Z,101724.00
2019-05-06T15:26:13.372Z,101718.07
2019-05-06T15:28:52.868Z,101722.66
2019-05-06T15:31:29.410Z,101724.00
2019-05-06T15:34:02.698Z,101730.84
2019-05-06T15:36:42.386Z,101730.14
2019-05-06T15:39:13.308Z,101731.77
2019-05-06T15:41:44.154Z,101735.59
2019-05-06T15:44:15.162Z,101732.88
2019-05-06T15:46:47.986Z,101733.19
2019-05-06T15:49:22.299Z,101728.37
2019-05-06T15:51:52.923Z,101733.78
2019-05-06T15:54:34.665Z,101729.70
2019-05-06T15:57:12.775Z,101725.52
2019-05-06T15:59:44.641Z,101716.57
2019-05-06T16:02:19.804Z,101706.81
2019-05-06T16:04:50.512Z,101703.41
2019-05-06T16:07:26.186Z,101700.94
2019-05-06T16:09:56.999Z,101701.01
2019-05-06T16:12:27.681Z,101697.91
2019-05-06T16:14:59.531Z,101698.02
2019-05-06T16:17:30.209Z,101702.25
2019-05-06T16:20:07.222Z,101692.06
2019-05-06T16:22:37.907Z,101690.11
2019-05-06T16:25:15.675Z,101687.42
2019-05-06T16:27:51.052Z,101677.64
2019-05-06T16:30:24.107Z,101684.91
2019-05-06T16:32:52.900Z,101686.46
2019-05-06T16:35:23.752Z,101679.34
2019-05-06T16:37:54.513Z,101674.48
2019-05-06T16:40:25.397Z,101678.14
2019-05-06T16:42:56.249Z,101672.86
2019-05-06T16:45:27.911Z,101676.67
2019-05-06T16:47:58.530Z,101669.59
2019-05-06T16:50:29.872Z,101668.70
2019-05-06T16:53:02.734Z,101666.11
2019-05-06T16:55:55.550Z,101673.20
2019-05-06T16:58:47.206Z,101660.59
2019-05-06T17:01:18.007Z,101669.41
2019-05-06T17:04:08.735Z,101671.55
2019-05-06T17:06:42.990Z,101669.31
2019-05-06T17:09:26.917Z,101667.61
2019-05-06T17:11:58.622Z,101664.71
2019-05-06T17:14:29.361Z,101661.10
2019-05-06T17:17:03.077Z,101666.23
2019-05-06T17:19:33.439Z,101669.84
2019-05-06T17:22:06.161Z,101673.07
2019-05-06T17:24:38.809Z,101670.03
2019-05-06T17:27:11.921Z,101670.75
2019-05-06T17:29:49.685Z,101677.74
2019-05-06T17:32:27.982Z,101669.97
2019-05-06T17:35:02.681Z,101666.26
2019-05-06T17:37:52.703Z,101665.85
2019-05-06T17:40:28.272Z,101668.31
2019-05-06T17:42:59.071Z,101671.01
2019-05-06T17:45:40.319Z,101670.59
2019-05-06T17:48:28.056Z,101668.93
2019-05-06T17:51:18.308Z,101668.70
2019-05-06T17:53:55.867Z,101665.98
2019-05-06T17:56:29.706Z,101662.23
2019-05-06T17:59:03.744Z,101669.64
2019-05-06T18:01:38.708Z,101657.70
2019-05-06T18:04:09.309Z,101657.45
2019-05-06T18:06:42.219Z,101652.06
2019-05-06T18:09:13.317Z,101658.97
2019-05-06T18:11:57.981Z,101657.16
2019-05-06T18:14:23.204Z,101659.83
2019-05-06T18:16:54.144Z,101657.95
2019-05-06T18:19:24.926Z,101659.86
2019-05-06T18:21:55.577Z,101664.50
2019-05-06T18:24:26.265Z,101670.23
2019-05-06T18:26:56.925Z,101672.47
2019-05-06T18:29:28.468Z,101667.47
2019-05-06T18:32:03.527Z,101669.53
2019-05-06T18:34:33.451Z,101670.77
2019-05-06T18:37:07.345Z,101676.15
2019-05-06T18:39:42.336Z,101675.58
2019-05-06T18:42:19.872Z,101678.42
2019-05-06T18:44:47.051Z,101670.30
2019-05-06T18:47:19.619Z,101671.95
2019-05-06T18:49:53.655Z,101678.36
2019-05-06T18:52:24.244Z,101676.34
2019-05-06T18:55:02.324Z,101673.34
2019-05-06T18:57:33.187Z,101681.05
2019-05-06T19:00:04.190Z,101682.88
2019-05-06T19:02:36.504Z,101677.15
2019-05-06T19:05:28.150Z,101676.45
2019-05-06T19:07:58.750Z,101678.27
2019-05-06T19:10:34.524Z,101689.03
2019-05-06T19:13:05.185Z,101687.33
2019-05-06T19:15:45.249Z,101694.87
2019-05-06T19:18:19.078Z,101691.23
2019-05-06T19:20:49.940Z,101705.39
2019-05-06T19:23:22.495Z,101705.00
2019-05-06T19:25:53.086Z,101707.69
2019-05-06T19:28:23.671Z,101709.10
2019-05-06T19:30:55.374Z,101707.55
2019-05-06T19:33:25.962Z,101713.26
2019-05-06T19:35:56.745Z,101707.92
2019-05-06T19:38:27.247Z,101707.52
2019-05-06T19:40:57.926Z,101706.20
2019-05-06T19:43:28.602Z,101716.43
2019-05-06T19:46:02.749Z,101718.19
2019-05-06T19:48:33.802Z,101719.62
2019-05-06T19:51:06.540Z,101719.78
2019-05-06T19:53:37.149Z,101709.03
2019-05-06T19:56:08.975Z,101715.69
2019-05-06T19:58:42.870Z,101717.44
2019-05-06T20:01:18.283Z,101716.86
2019-05-06T20:03:49.417Z,101718.78
2019-05-06T20:06:24.885Z,101719.25
2019-05-06T20:09:13.253Z,101719.77
2019-05-06T20:11:45.240Z,101718.27
2019-05-06T20:14:16.119Z,101714.27
2019-05-06T20:16:52.955Z,101723.19
2019-05-06T20:19:30.657Z,101719.54
2019-05-06T20:21:57.018Z,101718.38
2019-05-06T20:24:33.079Z,101717.99
2019-05-06T20:27:03.838Z,101715.35
2019-05-06T20:29:42.761Z,101716.05
2019-05-06T20:32:16.821Z,101714.13
2019-05-06T20:34:58.670Z,101711.08
2019-05-06T20:37:29.466Z,101714.98
2019-05-06T20:40:02.334Z,101713.11
2019-05-06T20:42:32.829Z,101711.23
2019-05-06T20:45:03.575Z,101719.59
2019-05-06T20:47:39.705Z,101715.69
2019-05-06T20:50:10.555Z,101716.75
2019-05-06T20:52:46.890Z,101712.00
2019-05-06T20:55:18.472Z,101719.09
2019-05-06T20:57:52.875Z,101715.69
2019-05-06T21:00:24.079Z,101715.34
2019-05-06T21:02:54.957Z,101718.95
2019-05-06T21:05:29.086Z,101719.97
2019-05-06T21:08:10.041Z,101725.39
2019-05-06T21:10:42.522Z,101722.81
2019-05-06T21:13:21.968Z,101722.70
2019-05-06T21:15:46.950Z,101725.16
2019-05-06T21:18:19.001Z,101730.28
2019-05-06T21:20:54.381Z,101726.89
2019-05-06T21:23:34.226Z,101723.27
2019-05-06T21:26:06.268Z,101720.79
2019-05-06T21:28:36.916Z,101719.05
2019-05-06T21:31:07.655Z,101712.28
2019-05-06T21:33:38.350Z,101711.33
2019-05-06T21:36:15.091Z,101715.80
2019-05-06T21:38:45.688Z,101712.39
2019-05-06T21:41:17.862Z,101713.45
2019-05-06T21:43:50.116Z,101714.45
2019-05-06T21:46:26.919Z,101718.03
2019-05-06T21:48:57.610Z,101716.11
2019-05-06T21:51:29.013Z,101710.94
2019-05-06T21:54:02.324Z,101715.44
2019-05-06T21:56:32.567Z,101716.78
2019-05-06T21:59:03.323Z,101717.14
2019-05-06T22:01:45.083Z,101711.94
2019-05-06T22:04:15.951Z,101716.67
2019-05-06T22:07:12.105Z,101712.64
2019-05-06T22:09:45.303Z,101716.47
2019-05-06T22:12:18.205Z,101713.70
2019-05-06T22:14:49.426Z,101712.71
2019-05-06T22:17:22.449Z,101709.23
2019-05-06T22:19:52.838Z,101708.60
2019-05-06T22:22:30.072Z,101702.76
2019-05-06T22:25:05.897Z,101703.39
2019-05-06T22:27:37.096Z,101702.69
2019-05-06T22:30:07.964Z,101701.34
2019-05-06T22:32:47.532Z,101701.88
2019-05-06T22:35:18.211Z,101699.81
2019-05-06T22:37:54.814Z,101696.38
2019-05-06T22:40:32.761Z,101695.14
2019-05-06T22:43:03.451Z,101704.28
2019-05-06T22:45:47.549Z,101696.27
2019-05-06T22:48:19.282Z,101692.80
2019-05-06T22:50:50.018Z,101696.38
2019-05-06T22:53:22.177Z,101689.36
2019-05-06T22:55:54.753Z,101687.56
2019-05-06T22:58:25.561Z,101691.52
2019-05-06T23:00:57.635Z,101692.80
2019-05-06T23:03:34.570Z,101696.05
2019-05-06T23:06:04.914Z,101699.66
2019-05-06T23:08:43.284Z,101695.94
2019-05-06T23:11:15.468Z,101697.31
2019-05-06T23:13:46.269Z,101700.01
2019-05-06T23:16:17.143Z,101697.84
2019-05-06T23:18:49.300Z,101708.22
2019-05-06T23:21:23.219Z,101704.28
2019-05-06T23:23:54.657Z,101706.34
2019-05-06T23:26:35.319Z,101707.83
2019-05-06T23:29:05.981Z,101708.45
2019-05-06T23:31:36.740Z,101705.93
2019-05-06T23:34:08.172Z,101702.45
2019-05-06T23:37:23.225Z,101702.52
2019-05-06T23:40:33.215Z,101700.36
2019-05-06T23:43:43.694Z,101706.45
2019-05-06T23:46:52.791Z,101702.78
2019-05-06T23:50:00.770Z,101705.05
2019-05-06T23:53:07.613Z,101708.03
2019-05-06T23:56:14.893Z,101708.48
2019-05-06T23:58:46.360Z,101704.75
